createdAt,value
2017-08-17T00:01:34.179Z,101055.97
2017-08-17T00:04:06.795Z,101049.59
2017-08-17T00:06:34.201Z,101041.69
2017-08-17T00:09:00.793Z,101030.91
2017-08-17T00:11:27.162Z,101027.09
2017-08-17T00:13:58.979Z,101028.98
2017-08-17T00:16:32.339Z,101034.00
2017-08-17T00:18:59.767Z,101030.16
2017-08-17T00:21:31.763Z,101027.53
2017-08-17T00:23:59.027Z,101021.39
2017-08-17T00:26:25.591Z,101016.39
2017-08-17T00:28:53.277Z,101012.30
2017-08-17T00:31:20.624Z,101009.62
2017-08-17T00:33:47.479Z,101017.64
2017-08-17T00:36:14.456Z,101015.86
2017-08-17T00:38:41.227Z,101012.70
2017-08-17T00:41:13.001Z,101010.98
2017-08-17T00:43:39.553Z,101015.14
2017-08-17T00:48:32.890Z,101012.89
2017-08-17T00:50:59.401Z,101007.95
2017-08-17T00:53:25.923Z,101011.88
2017-08-17T00:55:53.438Z,101008.95
2017-08-17T00:58:20.080Z,101011.69
2017-08-17T01:00:46.953Z,101013.98
2017-08-17T01:03:13.659Z,101005.80
2017-08-17T01:05:40.887Z,101010.77
2017-08-17T01:08:12.827Z,101009.50
2017-08-17T01:10:44.925Z,101010.98
2017-08-17T01:13:11.632Z,101016.13
2017-08-17T01:15:43.869Z,101010.72
2017-08-17T01:18:10.571Z,101010.20
2017-08-17T01:20:40.326Z,101005.12
2017-08-17T01:23:09.843Z,101002.09
2017-08-17T01:25:41.765Z,100998.84
2017-08-17T01:28:08.424Z,100996.12
2017-08-17T01:30:40.397Z,100993.02
2017-08-17T01:33:07.879Z,100999.13
2017-08-17T01:35:34.447Z,100995.48
2017-08-17T01:38:01.396Z,100994.03
2017-08-17T01:40:27.886Z,100993.51
2017-08-17T01:42:59.703Z,100991.89
2017-08-17T01:45:26.561Z,100989.73
2017-08-17T01:47:53.045Z,100985.95
2017-08-17T01:50:19.892Z,100987.54
2017-08-17T01:52:51.617Z,100983.75
2017-08-17T01:55:18.610Z,100978.95
2017-08-17T01:57:45.576Z,100968.91
2017-08-17T02:00:12.105Z,100971.00
2017-08-17T02:02:38.518Z,100970.29
2017-08-17T02:05:10.095Z,100963.95
2017-08-17T02:07:36.602Z,100971.00
2017-08-17T02:10:08.943Z,100970.61
2017-08-17T02:12:38.508Z,100971.16
2017-08-17T02:15:05.745Z,100972.99
2017-08-17T02:17:32.444Z,100977.40
2017-08-17T02:19:58.985Z,100975.34
2017-08-17T02:22:25.452Z,100967.16
2017-08-17T02:24:52.935Z,100971.96
2017-08-17T02:27:20.722Z,100986.55
2017-08-17T02:29:47.213Z,100988.46
2017-08-17T02:32:13.986Z,100992.58
2017-08-17T02:34:45.708Z,100989.16
2017-08-17T02:37:12.154Z,100985.23
2017-08-17T02:39:38.571Z,100991.42
2017-08-17T02:42:04.957Z,100982.40
2017-08-17T02:44:31.339Z,100991.72
2017-08-17T02:46:59.487Z,100984.50
2017-08-17T02:49:26.261Z,100987.89
2017-08-17T02:51:52.832Z,100981.61
2017-08-17T02:54:19.247Z,100972.55
2017-08-17T02:56:52.172Z,100972.72
2017-08-17T02:59:18.663Z,100966.81
2017-08-17T03:01:46.100Z,100971.32
2017-08-17T03:04:12.810Z,100969.29
2017-08-17T03:06:39.505Z,100975.33
2017-08-17T03:09:06.960Z,100971.17
2017-08-17T03:11:33.428Z,100972.89
2017-08-17T03:14:00.195Z,100967.59
2017-08-17T03:16:26.763Z,100966.23
2017-08-17T03:18:54.733Z,100971.40
2017-08-17T03:21:21.503Z,100964.94
2017-08-17T03:23:48.612Z,100968.82
2017-08-17T03:26:16.069Z,100973.00
2017-08-17T03:28:42.531Z,100981.09
2017-08-17T03:31:08.986Z,100975.55
2017-08-17T03:33:36.677Z,100974.64
2017-08-17T03:36:09.216Z,100973.06
2017-08-17T03:38:39.164Z,100971.18
2017-08-17T03:41:05.767Z,100976.73
2017-08-17T03:43:32.255Z,100978.33
2017-08-17T03:45:58.709Z,100981.44
2017-08-17T03:48:25.073Z,100975.49
2017-08-17T03:50:51.535Z,100971.47
2017-08-17T03:53:18.121Z,100965.04
2017-08-17T03:55:49.858Z,100971.18
2017-08-17T03:58:16.270Z,100971.50
2017-08-17T04:00:42.966Z,100971.92
2017-08-17T04:03:09.497Z,100965.41
2017-08-17T04:05:41.441Z,100961.84
2017-08-17T04:08:08.211Z,100958.88
2017-08-17T04:10:34.625Z,100959.58
2017-08-17T04:13:01.017Z,100962.05
2017-08-17T04:15:27.503Z,100962.13
2017-08-17T04:17:57.114Z,100963.34
2017-08-17T04:20:28.718Z,100962.35
2017-08-17T04:23:01.462Z,100954.45
2017-08-17T04:25:28.409Z,100954.07
2017-08-17T04:27:54.895Z,100960.27
2017-08-17T04:30:21.407Z,100955.91
2017-08-17T04:32:47.884Z,100950.20
2017-08-17T04:35:15.502Z,100947.11
2017-08-17T04:37:45.832Z,100949.93
2017-08-17T04:40:13.708Z,100943.56
2017-08-17T04:42:40.395Z,100940.33
2017-08-17T04:45:06.932Z,100931.69
2017-08-17T04:47:33.606Z,100932.56
2017-08-17T04:50:00.052Z,100933.23
2017-08-17T04:52:26.607Z,100929.65
2017-08-17T04:54:53.203Z,100931.41
2017-08-17T04:57:38.041Z,100924.47
2017-08-17T05:00:04.721Z,100922.70
2017-08-17T05:02:31.174Z,100920.42
2017-08-17T05:04:57.677Z,100928.17
2017-08-17T05:07:24.462Z,100928.56
2017-08-17T05:09:51.083Z,100921.20
2017-08-17T05:12:17.881Z,100910.41
2017-08-17T05:14:44.358Z,100905.61
2017-08-17T05:17:10.765Z,100905.41
2017-08-17T05:19:42.190Z,100907.97
2017-08-17T05:22:14.218Z,100902.70
2017-08-17T05:24:40.899Z,100905.59
2017-08-17T05:27:07.409Z,100901.81
2017-08-17T05:29:33.945Z,100908.27
2017-08-17T05:32:00.751Z,100910.09
2017-08-17T05:34:27.573Z,100903.37
2017-08-17T05:36:54.272Z,100908.97
2017-08-17T05:39:27.952Z,100902.00
2017-08-17T05:42:01.866Z,100909.88
2017-08-17T05:44:30.291Z,100901.87
2017-08-17T05:46:57.816Z,100893.36
2017-08-17T05:49:25.140Z,100885.75
2017-08-17T05:51:51.661Z,100889.30
2017-08-17T05:54:19.169Z,100892.36
2017-08-17T05:56:47.361Z,100887.86
2017-08-17T05:59:13.850Z,100882.41
2017-08-17T06:01:40.337Z,100884.80
2017-08-17T06:04:07.778Z,100884.81
2017-08-17T06:06:34.152Z,100881.50
2017-08-17T06:09:00.649Z,100877.93
2017-08-17T06:11:28.034Z,100873.23
2017-08-17T06:13:54.472Z,100869.36
2017-08-17T06:16:26.043Z,100874.20
2017-08-17T06:18:52.625Z,100882.38
2017-08-17T06:21:19.962Z,100884.59
2017-08-17T06:23:46.733Z,100882.91
2017-08-17T06:26:14.484Z,100882.57
2017-08-17T06:28:41.135Z,100879.27
2017-08-17T06:31:08.656Z,100877.30
2017-08-17T06:33:42.217Z,100881.42
2017-08-17T06:36:08.600Z,100883.00
2017-08-17T06:38:35.548Z,100887.01
2017-08-17T06:41:01.960Z,100889.69
2017-08-17T06:43:33.406Z,100878.39
2017-08-17T06:46:00.236Z,100882.25
2017-08-17T06:48:26.715Z,100878.42
2017-08-17T06:50:58.794Z,100869.41
2017-08-17T06:53:31.169Z,100871.40
2017-08-17T06:55:57.982Z,100870.51
2017-08-17T06:58:29.627Z,100874.45
2017-08-17T07:00:56.334Z,100878.93
2017-08-17T07:03:29.205Z,100880.48
2017-08-17T07:06:01.055Z,100880.77
2017-08-17T07:08:27.670Z,100873.91
2017-08-17T07:10:55.154Z,100876.41
2017-08-17T07:13:26.991Z,100870.03
2017-08-17T07:15:53.397Z,100872.87
2017-08-17T07:18:19.784Z,100875.85
2017-08-17T07:20:47.023Z,100863.88
2017-08-17T07:23:13.426Z,100876.75
2017-08-17T07:25:45.261Z,100868.08
2017-08-17T07:28:12.547Z,100870.31
2017-08-17T07:30:39.090Z,100874.45
2017-08-17T07:33:05.794Z,100871.71
2017-08-17T07:35:33.589Z,100869.30
2017-08-17T07:38:00.527Z,100863.58
2017-08-17T07:40:32.417Z,100867.59
2017-08-17T07:42:59.716Z,100861.02
2017-08-17T07:45:26.206Z,100859.60
2017-08-17T07:47:53.636Z,100857.32
2017-08-17T07:50:20.301Z,100859.67
2017-08-17T07:52:47.090Z,100855.44
2017-08-17T07:55:13.465Z,100866.67
2017-08-17T07:57:41.100Z,100861.16
2017-08-17T08:00:07.849Z,100859.47
2017-08-17T08:02:34.241Z,100860.17
2017-08-17T08:05:00.732Z,100859.88
2017-08-17T08:07:32.518Z,100855.48
2017-08-17T08:09:59.375Z,100850.75
2017-08-17T08:12:26.015Z,100848.34
2017-08-17T08:14:52.579Z,100845.42
2017-08-17T08:17:19.309Z,100842.44
2017-08-17T08:19:49.545Z,100846.94
2017-08-17T08:22:20.147Z,100843.61
2017-08-17T08:24:47.572Z,100842.59
2017-08-17T08:27:14.903Z,100837.66
2017-08-17T08:29:41.407Z,100840.80
2017-08-17T08:32:07.820Z,100841.23
2017-08-17T08:34:39.965Z,100841.52
2017-08-17T08:37:06.430Z,100838.13
2017-08-17T08:39:33.035Z,100842.09
2017-08-17T08:41:59.768Z,100842.11
2017-08-17T08:44:26.470Z,100835.42
2017-08-17T08:46:52.831Z,100835.31
2017-08-17T08:49:20.326Z,100829.87
2017-08-17T08:51:47.267Z,100831.72
2017-08-17T08:54:16.895Z,100831.55
2017-08-17T08:56:43.888Z,100826.17
2017-08-17T08:59:15.442Z,100826.33
2017-08-17T09:01:47.078Z,100821.94
2017-08-17T09:04:13.798Z,100818.55
2017-08-17T09:06:40.990Z,100816.35
2017-08-17T09:09:07.461Z,100811.38
2017-08-17T09:11:33.869Z,100811.34
2017-08-17T09:14:00.930Z,100803.84
2017-08-17T09:16:27.775Z,100805.31
2017-08-17T09:18:54.244Z,100810.91
2017-08-17T09:21:20.733Z,100812.63
2017-08-17T09:23:47.273Z,100812.75
2017-08-17T09:26:17.743Z,100812.89
2017-08-17T09:28:44.417Z,100806.41
2017-08-17T09:31:10.986Z,100812.53
2017-08-17T09:33:37.490Z,100814.20
2017-08-17T09:36:10.735Z,100803.85
2017-08-17T09:38:37.164Z,100790.84
2017-08-17T09:41:06.729Z,100796.92
2017-08-17T09:43:33.566Z,100791.52
2017-08-17T09:46:00.055Z,100782.05
2017-08-17T09:48:26.479Z,100784.65
2017-08-17T09:50:53.341Z,100781.79
2017-08-17T09:53:19.726Z,100780.97
2017-08-17T09:55:46.861Z,100772.57
2017-08-17T09:58:13.337Z,100776.31
2017-08-17T10:00:40.159Z,100779.64
2017-08-17T10:03:06.526Z,100775.55
2017-08-17T10:05:38.221Z,100765.69
2017-08-17T10:08:04.768Z,100758.83
2017-08-17T10:10:32.311Z,100763.86
2017-08-17T10:12:59.299Z,100759.30
2017-08-17T10:15:25.881Z,100750.28
2017-08-17T10:17:52.631Z,100744.94
2017-08-17T10:20:19.673Z,100750.97
2017-08-17T10:22:51.919Z,100752.93
2017-08-17T10:25:18.818Z,100761.69
2017-08-17T10:27:45.321Z,100762.78
2017-08-17T10:30:11.777Z,100758.58
2017-08-17T10:32:38.133Z,100758.03
2017-08-17T10:35:04.649Z,100746.97
2017-08-17T10:37:31.084Z,100743.86
2017-08-17T10:39:57.505Z,100739.31
2017-08-17T10:42:29.311Z,100733.91
2017-08-17T10:44:56.504Z,100738.91
2017-08-17T10:47:24.503Z,100728.50
2017-08-17T10:49:51.108Z,100736.03
2017-08-17T10:52:22.311Z,100732.16
2017-08-17T10:54:48.772Z,100741.16
2017-08-17T10:57:16.180Z,100737.06
2017-08-17T10:59:43.055Z,100740.45
2017-08-17T11:02:09.544Z,100738.52
2017-08-17T11:04:36.031Z,100747.19
2017-08-17T11:07:02.422Z,100736.83
2017-08-17T11:09:28.911Z,100739.55
2017-08-17T11:11:55.352Z,100736.33
2017-08-17T11:14:21.803Z,100735.56
2017-08-17T11:16:56.960Z,100733.56
2017-08-17T11:19:23.739Z,100733.89
2017-08-17T11:21:50.208Z,100732.27
2017-08-17T11:24:17.106Z,100720.98
2017-08-17T11:26:43.618Z,100723.30
2017-08-17T11:29:10.807Z,100726.25
2017-08-17T11:31:37.538Z,100729.88
2017-08-17T11:34:04.690Z,100732.80
2017-08-17T11:36:31.095Z,100733.72
2017-08-17T11:38:59.107Z,100732.62
2017-08-17T11:41:25.789Z,100732.47
2017-08-17T11:43:57.521Z,100735.50
2017-08-17T11:46:24.100Z,100728.84
2017-08-17T11:48:50.375Z,100731.66
2017-08-17T11:51:22.143Z,100728.00
2017-08-17T11:53:48.525Z,100720.55
2017-08-17T11:56:20.238Z,100710.56
2017-08-17T11:58:51.919Z,100707.53
2017-08-17T12:01:18.677Z,100705.33
2017-08-17T12:03:45.493Z,100697.59
2017-08-17T12:06:11.939Z,100700.55
2017-08-17T12:08:38.684Z,100701.66
2017-08-17T12:11:07.448Z,100697.09
2017-08-17T12:13:45.157Z,100705.89
2017-08-17T12:16:12.635Z,100693.88
2017-08-17T12:18:44.410Z,100688.91
2017-08-17T12:21:10.863Z,100688.79
2017-08-17T12:23:37.284Z,100690.38
2017-08-17T12:26:03.720Z,100706.43
2017-08-17T12:28:30.106Z,100708.22
2017-08-17T12:30:56.499Z,100698.08
2017-08-17T12:33:22.892Z,100695.31
2017-08-17T12:35:50.113Z,100696.59
2017-08-17T12:38:16.545Z,100700.48
2017-08-17T12:40:42.968Z,100704.60
2017-08-17T12:43:09.368Z,100714.55
2017-08-17T12:45:35.785Z,100716.27
2017-08-17T12:48:02.215Z,100720.20
2017-08-17T12:50:28.592Z,100724.19
2017-08-17T12:52:55.003Z,100720.38
2017-08-17T12:55:21.386Z,100722.73
2017-08-17T12:57:47.783Z,100729.77
2017-08-17T13:00:14.194Z,100725.64
2017-08-17T13:02:40.611Z,100724.02
2017-08-17T13:05:07.031Z,100724.27
2017-08-17T13:07:33.433Z,100734.68
2017-08-17T13:09:59.856Z,100730.80
2017-08-17T13:12:26.248Z,100726.50
2017-08-17T13:14:52.656Z,100737.20
2017-08-17T13:17:19.048Z,100728.16
2017-08-17T13:19:45.484Z,100737.42
2017-08-17T13:22:11.919Z,100728.40
2017-08-17T13:24:38.306Z,100715.32
2017-08-17T13:27:04.707Z,100716.77
2017-08-17T13:29:31.113Z,100712.60
2017-08-17T13:31:57.511Z,100727.64
2017-08-17T13:34:24.142Z,100734.73
2017-08-17T13:36:50.498Z,100738.67
2017-08-17T13:39:16.914Z,100743.78
2017-08-17T13:41:43.348Z,100747.43
2017-08-17T13:44:09.797Z,100758.63
2017-08-17T13:46:36.375Z,100763.99
2017-08-17T13:49:02.813Z,100768.36
2017-08-17T13:51:29.224Z,100772.21
2017-08-17T13:53:55.654Z,100776.81
2017-08-17T13:56:22.104Z,100776.45
2017-08-17T13:58:48.973Z,100778.98
2017-08-17T14:01:15.423Z,100783.77
2017-08-17T14:03:41.918Z,100779.09
2017-08-17T14:06:08.470Z,100794.14
2017-08-17T14:08:37.149Z,100788.30
2017-08-17T14:11:03.659Z,100784.65
2017-08-17T14:16:11.179Z,100780.22
2017-08-17T14:18:39.059Z,100781.80
2017-08-17T14:21:05.602Z,100769.34
2017-08-17T14:23:31.996Z,100782.56
2017-08-17T14:25:58.439Z,100781.52
2017-08-17T14:28:25.041Z,100775.87
2017-08-17T14:30:51.542Z,100785.64
2017-08-17T14:33:18.002Z,100776.13
2017-08-17T14:35:44.486Z,100775.16
2017-08-17T14:38:10.921Z,100766.03
2017-08-17T14:40:37.403Z,100768.41
2017-08-17T14:43:03.832Z,100779.84
2017-08-17T14:45:30.300Z,100782.75
2017-08-17T14:47:56.857Z,100786.78
2017-08-17T14:50:23.369Z,100785.23
2017-08-17T14:52:49.793Z,100786.52
2017-08-17T14:55:16.192Z,100789.42
2017-08-17T14:57:42.620Z,100801.08
2017-08-17T15:00:09.128Z,100786.37
2017-08-17T15:02:35.681Z,100780.64
2017-08-17T15:08:35.374Z,100785.14
2017-08-17T15:11:02.028Z,100785.75
2017-08-17T15:13:28.568Z,100786.72
2017-08-17T15:15:55.069Z,100781.64
2017-08-17T15:18:21.928Z,100779.09
2017-08-17T15:20:49.310Z,100791.43
2017-08-17T15:23:15.835Z,100783.66
2017-08-17T15:25:47.304Z,100794.50
2017-08-17T15:28:13.816Z,100803.04
2017-08-17T15:30:40.289Z,100782.69
2017-08-17T15:33:06.730Z,100780.62
2017-08-17T15:35:33.151Z,100773.24
2017-08-17T15:37:59.577Z,100771.15
2017-08-17T15:40:26.083Z,100770.20
2017-08-17T15:42:52.477Z,100774.05
2017-08-17T15:45:18.865Z,100771.69
2017-08-17T15:47:45.305Z,100769.91
2017-08-17T15:50:11.729Z,100773.47
2017-08-17T15:52:38.148Z,100775.77
2017-08-17T15:55:04.568Z,100783.59
2017-08-17T15:57:31.046Z,100789.36
2017-08-17T15:59:57.444Z,100790.67
2017-08-17T16:02:23.874Z,100785.18
2017-08-17T16:04:50.289Z,100778.83
2017-08-17T16:07:16.689Z,100771.63
2017-08-17T16:09:43.126Z,100770.94
2017-08-17T16:12:09.579Z,100758.61
2017-08-17T16:14:36.034Z,100749.67
2017-08-17T16:17:02.421Z,100745.92
2017-08-17T16:19:28.871Z,100744.84
2017-08-17T16:21:55.287Z,100742.44
2017-08-17T16:24:21.694Z,100760.94
2017-08-17T16:26:48.096Z,100786.08
2017-08-17T16:29:14.567Z,100765.02
2017-08-17T16:31:41.061Z,100753.58
2017-08-17T16:34:07.490Z,100754.83
2017-08-17T16:36:33.975Z,100747.78
2017-08-17T16:39:00.860Z,100735.00
2017-08-17T16:41:27.307Z,100715.22
2017-08-17T16:43:53.836Z,100708.69
2017-08-17T16:46:20.272Z,100706.55
2017-08-17T16:48:46.701Z,100712.53
2017-08-17T16:51:13.142Z,100717.82
2017-08-17T16:53:39.555Z,100717.23
2017-08-17T16:56:06.021Z,100713.48
2017-08-17T16:58:32.531Z,100731.48
2017-08-17T17:00:59.137Z,100727.30
2017-08-17T17:03:25.718Z,100720.48
2017-08-17T17:05:52.308Z,100732.36
2017-08-17T17:08:18.792Z,100746.69
2017-08-17T17:10:45.385Z,100757.02
2017-08-17T17:13:11.889Z,100760.33
2017-08-17T17:15:38.363Z,100773.27
2017-08-17T17:18:06.010Z,100784.19
2017-08-17T17:20:32.485Z,100786.12
2017-08-17T17:22:58.989Z,100796.33
2017-08-17T17:25:25.485Z,100789.20
2017-08-17T17:27:52.945Z,100774.79
2017-08-17T17:30:25.543Z,100747.14
2017-08-17T17:32:57.157Z,100760.14
2017-08-17T17:41:07.909Z,100778.30
2017-08-17T17:43:36.780Z,100786.97
2017-08-17T17:46:06.504Z,100788.31
2017-08-17T17:48:32.954Z,100786.89
2017-08-17T17:50:59.357Z,100785.25
2017-08-17T17:53:25.775Z,100786.13
2017-08-17T17:55:52.542Z,100776.48
2017-08-17T17:58:19.542Z,100767.78
2017-08-17T18:00:45.969Z,100773.77
2017-08-17T18:03:12.381Z,100783.77
2017-08-17T18:05:38.817Z,100782.30
2017-08-17T18:08:05.247Z,100777.83
2017-08-17T18:10:31.781Z,100778.36
2017-08-17T18:12:58.170Z,100774.07
2017-08-17T18:15:24.550Z,100773.05
2017-08-17T18:17:50.948Z,100775.11
2017-08-17T18:20:17.355Z,100783.03
2017-08-17T18:22:43.754Z,100786.48
2017-08-17T18:25:10.116Z,100780.61
2017-08-17T18:27:36.476Z,100781.42
2017-08-17T18:30:02.872Z,100786.55
2017-08-17T18:32:29.270Z,100784.64
2017-08-17T18:34:55.631Z,100785.29
2017-08-17T18:37:22.002Z,100785.20
2017-08-17T18:39:48.388Z,100787.02
2017-08-17T18:42:14.784Z,100786.44
2017-08-17T18:44:41.160Z,100783.36
2017-08-17T18:47:07.550Z,100786.86
2017-08-17T18:49:33.936Z,100784.75
2017-08-17T18:52:00.894Z,100777.39
2017-08-17T18:54:27.281Z,100784.53
2017-08-17T18:56:53.675Z,100783.57
2017-08-17T18:59:20.082Z,100786.49
2017-08-17T19:01:46.541Z,100787.78
2017-08-17T19:04:12.963Z,100786.70
2017-08-17T19:07:06.175Z,100789.23
2017-08-17T19:09:34.852Z,100789.39
2017-08-17T19:12:02.241Z,100787.52
2017-08-17T19:14:29.233Z,100791.39
2017-08-17T19:16:55.793Z,100794.08
2017-08-17T19:36:24.908Z,100786.66
2017-08-17T19:38:51.470Z,100788.41
2017-08-17T19:41:17.838Z,100781.80
2017-08-17T19:43:44.241Z,100780.66
2017-08-17T19:46:10.727Z,100784.73
2017-08-17T19:48:46.528Z,100793.19
2017-08-17T20:00:17.164Z,100795.06
2017-08-17T20:02:43.796Z,100790.88
2017-08-17T20:05:10.342Z,100788.08
2017-08-17T20:07:36.855Z,100784.70
2017-08-17T20:10:05.606Z,100784.09
2017-08-17T20:12:32.434Z,100790.66
2017-08-17T20:15:00.123Z,100794.05
2017-08-17T20:17:26.883Z,100791.19
2017-08-17T20:19:53.701Z,100782.75
2017-08-17T20:22:20.333Z,100782.75
2017-08-17T20:24:47.212Z,100789.47
2017-08-17T20:27:13.877Z,100782.26
2017-08-17T20:29:41.510Z,100787.13
2017-08-17T20:32:17.282Z,100782.32
2017-08-17T20:34:48.877Z,100777.90
2017-08-17T20:37:15.268Z,100771.00
2017-08-17T20:39:41.714Z,100766.75
2017-08-17T20:42:08.160Z,100769.16
2017-08-17T20:44:34.559Z,100755.63
2017-08-17T20:47:00.946Z,100761.64
2017-08-17T20:49:27.360Z,100762.53
2017-08-17T20:51:53.765Z,100762.53
2017-08-17T20:54:20.184Z,100759.30
2017-08-17T20:56:46.601Z,100754.45
2017-08-17T20:59:14.071Z,100752.77
2017-08-17T21:01:42.966Z,100749.13
2017-08-17T21:04:09.486Z,100748.33
2017-08-17T21:06:35.871Z,100749.53
2017-08-17T21:09:02.345Z,100744.79
2017-08-17T21:11:28.709Z,100738.05
2017-08-17T21:13:55.095Z,100740.85
2017-08-17T21:16:21.453Z,100746.14
2017-08-17T21:18:47.863Z,100738.23
2017-08-17T21:21:14.205Z,100743.02
2017-08-17T21:23:40.623Z,100743.35
2017-08-17T21:26:07.026Z,100730.68
2017-08-17T21:28:33.389Z,100733.24
2017-08-17T21:30:59.789Z,100733.13
2017-08-17T21:33:26.184Z,100727.96
2017-08-17T21:35:52.551Z,100729.64
2017-08-17T21:38:18.929Z,100739.23
2017-08-17T21:40:45.311Z,100739.32
2017-08-17T21:43:11.673Z,100732.88
2017-08-17T21:45:38.060Z,100735.05
2017-08-17T21:48:04.495Z,100727.84
2017-08-17T21:50:30.885Z,100730.80
2017-08-17T21:52:57.244Z,100733.30
2017-08-17T21:55:23.610Z,100740.53
2017-08-17T21:57:50.450Z,100735.93
2017-08-17T22:00:16.877Z,100740.30
2017-08-17T22:02:43.263Z,100740.36
2017-08-17T22:05:09.666Z,100732.02
2017-08-17T22:07:36.049Z,100726.09
2017-08-17T22:10:02.414Z,100730.04
2017-08-17T22:12:28.769Z,100726.38
2017-08-17T22:14:55.133Z,100716.23
2017-08-17T22:17:21.489Z,100721.13
2017-08-17T22:19:47.836Z,100724.27
2017-08-17T22:22:14.205Z,100728.69
2017-08-17T22:24:40.602Z,100724.17
2017-08-17T22:27:06.991Z,100726.52
2017-08-17T22:29:33.364Z,100713.21
2017-08-17T22:31:59.754Z,100718.86
2017-08-17T22:34:26.127Z,100720.78
2017-08-17T22:36:52.502Z,100726.03
2017-08-17T22:39:18.939Z,100722.45
2017-08-17T22:41:45.341Z,100720.84
2017-08-17T22:44:11.732Z,100718.44
2017-08-17T22:46:38.115Z,100717.13
2017-08-17T22:49:04.471Z,100722.79
2017-08-17T22:51:30.867Z,100720.41
2017-08-17T22:53:57.232Z,100727.52
2017-08-17T22:56:23.592Z,100732.19
2017-08-17T22:58:50.011Z,100727.12
2017-08-17T23:01:16.444Z,100716.80
2017-08-17T23:03:42.813Z,100719.70
2017-08-17T23:06:09.361Z,100722.88
2017-08-17T23:08:35.781Z,100721.37
2017-08-17T23:11:02.202Z,100717.94
2017-08-17T23:13:28.614Z,100718.08
2017-08-17T23:15:55.083Z,100716.18
2017-08-17T23:18:21.577Z,100706.50
2017-08-17T23:20:48.021Z,100706.42
2017-08-17T23:23:14.469Z,100704.40
2017-08-17T23:25:40.970Z,100703.84
2017-08-17T23:28:07.420Z,100701.72
2017-08-17T23:30:33.844Z,100706.39
2017-08-17T23:33:00.350Z,100704.53
2017-08-17T23:35:26.801Z,100706.30
2017-08-17T23:37:53.187Z,100707.38
2017-08-17T23:40:19.578Z,100704.69
2017-08-17T23:42:45.974Z,100703.37
2017-08-17T23:45:12.414Z,100703.85
2017-08-17T23:47:38.813Z,100709.50
2017-08-17T23:50:05.271Z,100712.04
2017-08-17T23:52:31.677Z,100710.69
2017-08-17T23:54:58.081Z,100705.21
2017-08-17T23:57:24.450Z,100708.73
2017-08-17T23:59:50.829Z,100712.75
